Bennett, North Carolina
Current Conditions -  °F | °C
As of 8:15 PM on Thursday 27 Nov 2014 (Local Time) from K5W8 Reporting Station
Clear Clear  
Wind Chill: 34°   Ceiling: Unl
Heat Index: 38°   Visibility: 10mi
Dew Point: 25°   Wind: 5mph
Humidity: 60%   Direction: 320°NW
Pressure: 30.22"   Gusts: NA
Location:  35.57°N, 79.54°W
Report Text: K5W8 280115Z AUTO 32004KT 10SM CLR 03/M04 A3022 RMK AO2 T00321038
Loading
Personal Weather Stations






























Interactive Weather Map New forecast layout! Learn more

10-Day Weather Forecast

Advertisements
Track Severe Weather on mobile